sensor_id;sensor_type;location;lat;lon;timestamp;P1;durP1;ratioP1;P2;durP2;ratioP2
15114;SDS011;7658;51.456;7.622;2022-10-17T00:00:24;5.85;;;5.00;;
15114;SDS011;7658;51.456;7.622;2022-10-17T00:02:50;6.45;;;4.78;;
15114;SDS011;7658;51.456;7.622;2022-10-17T00:05:18;7.82;;;5.30;;
15114;SDS011;7658;51.456;7.622;2022-10-17T00:07:47;8.43;;;5.40;;
15114;SDS011;7658;51.456;7.622;2022-10-17T00:10:13;9.20;;;4.70;;
15114;SDS011;7658;51.456;7.622;2022-10-17T00:12:39;6.28;;;5.00;;
15114;SDS011;7658;51.456;7.622;2022-10-17T00:15:05;6.38;;;5.05;;
15114;SDS011;7658;51.456;7.622;2022-10-17T00:17:32;5.85;;;5.15;;
15114;SDS011;7658;51.456;7.622;2022-10-17T00:19:59;5.50;;;4.70;;
15114;SDS011;7658;51.456;7.622;2022-10-17T00:22:25;5.63;;;5.10;;
15114;SDS011;7658;51.456;7.622;2022-10-17T00:24:51;6.93;;;5.30;;
15114;SDS011;7658;51.456;7.622;2022-10-17T00:27:17;6.38;;;4.90;;
15114;SDS011;7658;51.456;7.622;2022-10-17T00:29:47;5.43;;;4.78;;
15114;SDS011;7658;51.456;7.622;2022-10-17T00:32:16;5.28;;;4.78;;
15114;SDS011;7658;51.456;7.622;2022-10-17T00:34:43;6.72;;;4.53;;
15114;SDS011;7658;51.456;7.622;2022-10-17T00:37:09;5.82;;;4.63;;
15114;SDS011;7658;51.456;7.622;2022-10-17T00:39:36;5.65;;;5.05;;
15114;SDS011;7658;51.456;7.622;2022-10-17T00:42:02;5.53;;;4.78;;
15114;SDS011;7658;51.456;7.622;2022-10-17T00:46:54;5.47;;;4.80;;
15114;SDS011;7658;51.456;7.622;2022-10-17T00:49:21;7.82;;;4.93;;
15114;SDS011;7658;51.456;7.622;2022-10-17T00:51:55;7.22;;;5.28;;
15114;SDS011;7658;51.456;7.622;2022-10-17T00:54:26;5.88;;;5.20;;
15114;SDS011;7658;51.456;7.622;2022-10-17T00:56:57;7.90;;;5.20;;
15114;SDS011;7658;51.456;7.622;2022-10-17T00:59:24;8.38;;;5.40;;
15114;SDS011;7658;51.456;7.622;2022-10-17T01:02:01;7.88;;;5.28;;
15114;SDS011;7658;51.456;7.622;2022-10-17T01:04:29;6.25;;;5.40;;
15114;SDS011;7658;51.456;7.622;2022-10-17T01:06:55;8.32;;;5.78;;
15114;SDS011;7658;51.456;7.622;2022-10-17T01:09:21;7.45;;;4.95;;
15114;SDS011;7658;51.456;7.622;2022-10-17T01:11:54;6.25;;;5.20;;
15114;SDS011;7658;51.456;7.622;2022-10-17T01:14:32;7.70;;;5.32;;
15114;SDS011;7658;51.456;7.622;2022-10-17T01:17:31;6.93;;;4.80;;
15114;SDS011;7658;51.456;7.622;2022-10-17T01:26:12;5.55;;;4.65;;
15114;SDS011;7658;51.456;7.622;2022-10-17T01:31:39;6.28;;;5.32;;
15114;SDS011;7658;51.456;7.622;2022-10-17T01:34:30;6.25;;;5.15;;
15114;SDS011;7658;51.456;7.622;2022-10-17T01:42:58;6.78;;;5.60;;
15114;SDS011;7658;51.456;7.622;2022-10-17T01:48:28;6.68;;;5.60;;
15114;SDS011;7658;51.456;7.622;2022-10-17T01:51:03;7.72;;;5.68;;
15114;SDS011;7658;51.456;7.622;2022-10-17T01:53:35;7.30;;;5.90;;
15114;SDS011;7658;51.456;7.622;2022-10-17T01:56:05;7.47;;;5.57;;
15114;SDS011;7658;51.456;7.622;2022-10-17T01:58:38;13.50;;;5.90;;
15114;SDS011;7658;51.456;7.622;2022-10-17T02:01:17;9.10;;;6.70;;
15114;SDS011;7658;51.456;7.622;2022-10-17T02:03:44;10.05;;;5.95;;
15114;SDS011;7658;51.456;7.622;2022-10-17T02:06:12;7.95;;;6.38;;
15114;SDS011;7658;51.456;7.622;2022-10-17T02:08:39;8.88;;;5.93;;
15114;SDS011;7658;51.456;7.622;2022-10-17T02:11:14;8.60;;;5.85;;
15114;SDS011;7658;51.456;7.622;2022-10-17T02:17:38;6.47;;;5.20;;
15114;SDS011;7658;51.456;7.622;2022-10-17T02:28:02;8.10;;;7.13;;
15114;SDS011;7658;51.456;7.622;2022-10-17T02:30:33;18.85;;;7.80;;
15114;SDS011;7658;51.456;7.622;2022-10-17T02:33:08;10.02;;;7.43;;
15114;SDS011;7658;51.456;7.622;2022-10-17T02:35:46;7.47;;;6.68;;
15114;SDS011;7658;51.456;7.622;2022-10-17T02:38:15;7.47;;;5.97;;
15114;SDS011;7658;51.456;7.622;2022-10-17T02:40:43;11.80;;;6.80;;
15114;SDS011;7658;51.456;7.622;2022-10-17T02:43:10;8.13;;;6.82;;
15114;SDS011;7658;51.456;7.622;2022-10-17T02:45:37;10.52;;;7.15;;
15114;SDS011;7658;51.456;7.622;2022-10-17T02:48:08;10.03;;;6.43;;
15114;SDS011;7658;51.456;7.622;2022-10-17T02:50:48;10.15;;;5.60;;
15114;SDS011;7658;51.456;7.622;2022-10-17T02:53:39;9.30;;;6.47;;
15114;SDS011;7658;51.456;7.622;2022-10-17T02:56:16;7.72;;;6.90;;
15114;SDS011;7658;51.456;7.622;2022-10-17T02:58:45;9.25;;;7.20;;
15114;SDS011;7658;51.456;7.622;2022-10-17T03:01:15;10.93;;;6.68;;
15114;SDS011;7658;51.456;7.622;2022-10-17T03:03:42;8.77;;;6.32;;
15114;SDS011;7658;51.456;7.622;2022-10-17T03:06:08;8.73;;;6.72;;
15114;SDS011;7658;51.456;7.622;2022-10-17T03:08:33;8.07;;;6.43;;
15114;SDS011;7658;51.456;7.622;2022-10-17T03:10:59;9.13;;;6.45;;
15114;SDS011;7658;51.456;7.622;2022-10-17T03:13:25;10.70;;;6.57;;
15114;SDS011;7658;51.456;7.622;2022-10-17T03:15:50;8.40;;;6.65;;
15114;SDS011;7658;51.456;7.622;2022-10-17T03:18:16;8.73;;;6.50;;
15114;SDS011;7658;51.456;7.622;2022-10-17T03:20:42;9.80;;;6.90;;
15114;SDS011;7658;51.456;7.622;2022-10-17T03:23:07;7.57;;;6.00;;
15114;SDS011;7658;51.456;7.622;2022-10-17T03:25:33;10.85;;;7.25;;
15114;SDS011;7658;51.456;7.622;2022-10-17T03:27:59;9.35;;;7.25;;
15114;SDS011;7658;51.456;7.622;2022-10-17T03:30:25;10.40;;;6.90;;
15114;SDS011;7658;51.456;7.622;2022-10-17T03:32:52;10.02;;;6.78;;
15114;SDS011;7658;51.456;7.622;2022-10-17T03:35:17;9.82;;;7.45;;
15114;SDS011;7658;51.456;7.622;2022-10-17T03:37:43;10.13;;;7.93;;
15114;SDS011;7658;51.456;7.622;2022-10-17T03:40:09;9.13;;;6.60;;
15114;SDS011;7658;51.456;7.622;2022-10-17T03:42:35;9.52;;;7.63;;
15114;SDS011;7658;51.456;7.622;2022-10-17T03:45:00;11.18;;;7.95;;
15114;SDS011;7658;51.456;7.622;2022-10-17T03:47:27;10.18;;;8.18;;
15114;SDS011;7658;51.456;7.622;2022-10-17T03:49:53;12.07;;;7.88;;
15114;SDS011;7658;51.456;7.622;2022-10-17T03:52:19;9.70;;;7.57;;
15114;SDS011;7658;51.456;7.622;2022-10-17T03:54:44;11.27;;;7.75;;
15114;SDS011;7658;51.456;7.622;2022-10-17T03:57:10;11.20;;;7.72;;
15114;SDS011;7658;51.456;7.622;2022-10-17T03:59:36;9.25;;;7.78;;
15114;SDS011;7658;51.456;7.622;2022-10-17T04:02:01;11.07;;;8.30;;
15114;SDS011;7658;51.456;7.622;2022-10-17T04:04:27;10.63;;;8.23;;
15114;SDS011;7658;51.456;7.622;2022-10-17T04:06:53;10.30;;;8.05;;
15114;SDS011;7658;51.456;7.622;2022-10-17T04:09:19;15.98;;;8.55;;
15114;SDS011;7658;51.456;7.622;2022-10-17T04:11:45;12.43;;;8.20;;
15114;SDS011;7658;51.456;7.622;2022-10-17T04:14:10;9.20;;;7.70;;
15114;SDS011;7658;51.456;7.622;2022-10-17T04:16:37;11.70;;;7.53;;
15114;SDS011;7658;51.456;7.622;2022-10-17T04:19:03;12.40;;;8.20;;
15114;SDS011;7658;51.456;7.622;2022-10-17T04:21:28;10.88;;;7.93;;
15114;SDS011;7658;51.456;7.622;2022-10-17T04:23:55;10.30;;;8.05;;
15114;SDS011;7658;51.456;7.622;2022-10-17T04:26:24;10.38;;;8.38;;
15114;SDS011;7658;51.456;7.622;2022-10-17T04:28:51;9.18;;;8.23;;
15114;SDS011;7658;51.456;7.622;2022-10-17T04:31:17;9.70;;;8.27;;
15114;SDS011;7658;51.456;7.622;2022-10-17T04:33:45;12.95;;;8.60;;
15114;SDS011;7658;51.456;7.622;2022-10-17T04:36:12;11.55;;;8.85;;
15114;SDS011;7658;51.456;7.622;2022-10-17T04:38:40;10.35;;;8.20;;
15114;SDS011;7658;51.456;7.622;2022-10-17T04:41:07;11.98;;;8.93;;
15114;SDS011;7658;51.456;7.622;2022-10-17T04:43:36;11.05;;;9.13;;
15114;SDS011;7658;51.456;7.622;2022-10-17T04:46:07;11.95;;;9.13;;
15114;SDS011;7658;51.456;7.622;2022-10-17T04:48:34;13.25;;;8.65;;
15114;SDS011;7658;51.456;7.622;2022-10-17T04:51:01;13.88;;;9.27;;
15114;SDS011;7658;51.456;7.622;2022-10-17T04:53:30;12.35;;;8.88;;
15114;SDS011;7658;51.456;7.622;2022-10-17T04:55:57;11.32;;;9.15;;
15114;SDS011;7658;51.456;7.622;2022-10-17T04:58:23;13.75;;;9.15;;
15114;SDS011;7658;51.456;7.622;2022-10-17T05:00:48;16.52;;;10.35;;
15114;SDS011;7658;51.456;7.622;2022-10-17T05:03:14;11.13;;;8.80;;
15114;SDS011;7658;51.456;7.622;2022-10-17T05:05:41;13.98;;;9.82;;
15114;SDS011;7658;51.456;7.622;2022-10-17T05:08:07;12.48;;;9.23;;
15114;SDS011;7658;51.456;7.622;2022-10-17T05:10:38;13.30;;;8.55;;
15114;SDS011;7658;51.456;7.622;2022-10-17T05:13:06;10.10;;;8.63;;
15114;SDS011;7658;51.456;7.622;2022-10-17T05:15:33;11.32;;;8.65;;
15114;SDS011;7658;51.456;7.622;2022-10-17T05:17:59;14.90;;;9.25;;
15114;SDS011;7658;51.456;7.622;2022-10-17T05:20:25;11.40;;;8.15;;
15114;SDS011;7658;51.456;7.622;2022-10-17T05:22:51;10.63;;;7.82;;
15114;SDS011;7658;51.456;7.622;2022-10-17T05:25:16;8.70;;;7.00;;
15114;SDS011;7658;51.456;7.622;2022-10-17T05:27:42;12.25;;;7.53;;
15114;SDS011;7658;51.456;7.622;2022-10-17T05:30:08;9.00;;;7.07;;
15114;SDS011;7658;51.456;7.622;2022-10-17T05:32:34;13.98;;;8.35;;
15114;SDS011;7658;51.456;7.622;2022-10-17T05:35:00;10.00;;;8.05;;
15114;SDS011;7658;51.456;7.622;2022-10-17T05:37:28;12.35;;;7.85;;
15114;SDS011;7658;51.456;7.622;2022-10-17T05:39:55;10.18;;;7.15;;
15114;SDS011;7658;51.456;7.622;2022-10-17T05:42:21;10.73;;;7.32;;
15114;SDS011;7658;51.456;7.622;2022-10-17T05:44:47;10.45;;;8.07;;
15114;SDS011;7658;51.456;7.622;2022-10-17T05:47:12;9.98;;;7.95;;
15114;SDS011;7658;51.456;7.622;2022-10-17T05:49:38;11.90;;;8.15;;
15114;SDS011;7658;51.456;7.622;2022-10-17T05:52:04;12.43;;;9.13;;
15114;SDS011;7658;51.456;7.622;2022-10-17T05:54:30;9.90;;;8.40;;
15114;SDS011;7658;51.456;7.622;2022-10-17T05:56:58;9.93;;;8.52;;
15114;SDS011;7658;51.456;7.622;2022-10-17T05:59:27;11.45;;;9.35;;
15114;SDS011;7658;51.456;7.622;2022-10-17T06:01:53;14.20;;;9.25;;
15114;SDS011;7658;51.456;7.622;2022-10-17T06:04:22;10.27;;;7.88;;
15114;SDS011;7658;51.456;7.622;2022-10-17T06:06:52;13.23;;;8.55;;
15114;SDS011;7658;51.456;7.622;2022-10-17T06:09:21;19.02;;;9.43;;
15114;SDS011;7658;51.456;7.622;2022-10-17T06:11:51;11.50;;;8.43;;
15114;SDS011;7658;51.456;7.622;2022-10-17T06:14:22;13.80;;;9.40;;
15114;SDS011;7658;51.456;7.622;2022-10-17T06:16:50;11.52;;;8.80;;
15114;SDS011;7658;51.456;7.622;2022-10-17T06:19:16;15.65;;;9.40;;
15114;SDS011;7658;51.456;7.622;2022-10-17T06:21:42;12.45;;;9.48;;
15114;SDS011;7658;51.456;7.622;2022-10-17T06:24:08;12.02;;;8.50;;
15114;SDS011;7658;51.456;7.622;2022-10-17T06:26:37;14.73;;;8.80;;
15114;SDS011;7658;51.456;7.622;2022-10-17T06:29:06;15.50;;;9.25;;
15114;SDS011;7658;51.456;7.622;2022-10-17T06:31:38;12.50;;;8.85;;
15114;SDS011;7658;51.456;7.622;2022-10-17T06:34:04;12.77;;;8.93;;
15114;SDS011;7658;51.456;7.622;2022-10-17T06:36:29;11.65;;;8.85;;
15114;SDS011;7658;51.456;7.622;2022-10-17T06:38:57;15.07;;;8.70;;
15114;SDS011;7658;51.456;7.622;2022-10-17T06:41:24;12.15;;;9.25;;
15114;SDS011;7658;51.456;7.622;2022-10-17T06:43:50;13.10;;;9.18;;
15114;SDS011;7658;51.456;7.622;2022-10-17T06:46:19;12.55;;;9.18;;
15114;SDS011;7658;51.456;7.622;2022-10-17T06:48:45;16.45;;;9.35;;
15114;SDS011;7658;51.456;7.622;2022-10-17T06:51:13;18.60;;;9.98;;
15114;SDS011;7658;51.456;7.622;2022-10-17T06:53:41;14.13;;;9.88;;
15114;SDS011;7658;51.456;7.622;2022-10-17T06:56:10;16.58;;;10.13;;
15114;SDS011;7658;51.456;7.622;2022-10-17T06:58:37;17.55;;;9.85;;
15114;SDS011;7658;51.456;7.622;2022-10-17T07:01:14;14.90;;;9.80;;
15114;SDS011;7658;51.456;7.622;2022-10-17T07:03:42;13.43;;;9.90;;
15114;SDS011;7658;51.456;7.622;2022-10-17T07:06:15;16.67;;;9.57;;
15114;SDS011;7658;51.456;7.622;2022-10-17T07:08:47;12.32;;;8.70;;
15114;SDS011;7658;51.456;7.622;2022-10-17T07:11:35;13.32;;;9.13;;
15114;SDS011;7658;51.456;7.622;2022-10-17T07:14:06;13.80;;;9.75;;
15114;SDS011;7658;51.456;7.622;2022-10-17T07:16:36;10.55;;;8.20;;
15114;SDS011;7658;51.456;7.622;2022-10-17T07:19:15;10.93;;;8.02;;
15114;SDS011;7658;51.456;7.622;2022-10-17T07:21:41;11.63;;;8.55;;
15114;SDS011;7658;51.456;7.622;2022-10-17T07:24:15;11.95;;;9.00;;
15114;SDS011;7658;51.456;7.622;2022-10-17T07:26:44;11.25;;;8.75;;
15114;SDS011;7658;51.456;7.622;2022-10-17T07:29:12;10.48;;;8.02;;
15114;SDS011;7658;51.456;7.622;2022-10-17T07:31:53;10.10;;;7.93;;
15114;SDS011;7658;51.456;7.622;2022-10-17T07:34:26;10.45;;;7.85;;
15114;SDS011;7658;51.456;7.622;2022-10-17T07:36:56;13.88;;;8.75;;
15114;SDS011;7658;51.456;7.622;2022-10-17T07:39:23;14.18;;;8.43;;
15114;SDS011;7658;51.456;7.622;2022-10-17T07:41:54;13.43;;;7.57;;
15114;SDS011;7658;51.456;7.622;2022-10-17T07:44:24;13.15;;;7.90;;
15114;SDS011;7658;51.456;7.622;2022-10-17T07:46:56;10.35;;;8.05;;
15114;SDS011;7658;51.456;7.622;2022-10-17T07:49:28;15.70;;;7.63;;
15114;SDS011;7658;51.456;7.622;2022-10-17T07:51:56;9.60;;;7.68;;
15114;SDS011;7658;51.456;7.622;2022-10-17T07:54:23;9.80;;;7.00;;
15114;SDS011;7658;51.456;7.622;2022-10-17T07:56:49;14.07;;;6.75;;
15114;SDS011;7658;51.456;7.622;2022-10-17T07:59:16;9.63;;;6.97;;
15114;SDS011;7658;51.456;7.622;2022-10-17T08:02:13;10.98;;;6.80;;
15114;SDS011;7658;51.456;7.622;2022-10-17T08:04:48;8.68;;;6.75;;
15114;SDS011;7658;51.456;7.622;2022-10-17T08:07:15;11.60;;;6.57;;
15114;SDS011;7658;51.456;7.622;2022-10-17T08:09:44;6.90;;;6.15;;
15114;SDS011;7658;51.456;7.622;2022-10-17T08:12:14;12.15;;;6.07;;
15114;SDS011;7658;51.456;7.622;2022-10-17T08:14:45;10.20;;;6.82;;
15114;SDS011;7658;51.456;7.622;2022-10-17T08:17:16;8.38;;;6.18;;
15114;SDS011;7658;51.456;7.622;2022-10-17T08:19:47;8.70;;;6.70;;
15114;SDS011;7658;51.456;7.622;2022-10-17T08:22:15;11.00;;;6.10;;
15114;SDS011;7658;51.456;7.622;2022-10-17T08:24:42;10.07;;;5.65;;
15114;SDS011;7658;51.456;7.622;2022-10-17T08:27:10;8.90;;;5.53;;
15114;SDS011;7658;51.456;7.622;2022-10-17T08:29:40;10.50;;;6.13;;
15114;SDS011;7658;51.456;7.622;2022-10-17T08:32:15;12.68;;;5.93;;
15114;SDS011;7658;51.456;7.622;2022-10-17T08:34:53;8.43;;;5.85;;
15114;SDS011;7658;51.456;7.622;2022-10-17T08:37:30;13.00;;;5.97;;
15114;SDS011;7658;51.456;7.622;2022-10-17T08:39:56;6.45;;;5.00;;
15114;SDS011;7658;51.456;7.622;2022-10-17T08:42:33;9.85;;;5.25;;
15114;SDS011;7658;51.456;7.622;2022-10-17T08:48:17;9.98;;;5.25;;
15114;SDS011;7658;51.456;7.622;2022-10-17T08:50:48;8.45;;;4.90;;
15114;SDS011;7658;51.456;7.622;2022-10-17T08:56:10;6.55;;;4.50;;
15114;SDS011;7658;51.456;7.622;2022-10-17T08:58:47;6.15;;;5.20;;
15114;SDS011;7658;51.456;7.622;2022-10-17T09:06:24;11.38;;;5.10;;
15114;SDS011;7658;51.456;7.622;2022-10-17T09:17:14;12.70;;;5.05;;
15114;SDS011;7658;51.456;7.622;2022-10-17T09:20:07;7.22;;;4.80;;
15114;SDS011;7658;51.456;7.622;2022-10-17T09:22:44;7.78;;;4.90;;
15114;SDS011;7658;51.456;7.622;2022-10-17T09:25:23;6.95;;;4.45;;
15114;SDS011;7658;51.456;7.622;2022-10-17T09:27:57;6.60;;;4.18;;
15114;SDS011;7658;51.456;7.622;2022-10-17T09:30:42;9.02;;;4.43;;
15114;SDS011;7658;51.456;7.622;2022-10-17T09:33:25;12.77;;;4.85;;
15114;SDS011;7658;51.456;7.622;2022-10-17T09:35:55;6.55;;;4.10;;
15114;SDS011;7658;51.456;7.622;2022-10-17T09:38:23;4.65;;;4.13;;
15114;SDS011;7658;51.456;7.622;2022-10-17T09:40:54;6.03;;;3.95;;
15114;SDS011;7658;51.456;7.622;2022-10-17T09:43:25;7.18;;;4.47;;
15114;SDS011;7658;51.456;7.622;2022-10-17T09:48:45;6.20;;;3.47;;
15114;SDS011;7658;51.456;7.622;2022-10-17T09:51:16;5.03;;;3.90;;
15114;SDS011;7658;51.456;7.622;2022-10-17T09:53:44;6.88;;;4.15;;
15114;SDS011;7658;51.456;7.622;2022-10-17T09:56:14;10.45;;;4.20;;
15114;SDS011;7658;51.456;7.622;2022-10-17T09:58:45;6.32;;;4.10;;
15114;SDS011;7658;51.456;7.622;2022-10-17T10:03:41;8.00;;;3.90;;
15114;SDS011;7658;51.456;7.622;2022-10-17T10:06:16;8.23;;;4.45;;
15114;SDS011;7658;51.456;7.622;2022-10-17T10:14:20;8.15;;;4.38;;
15114;SDS011;7658;51.456;7.622;2022-10-17T10:16:49;6.40;;;3.80;;
15114;SDS011;7658;51.456;7.622;2022-10-17T10:21:57;10.35;;;4.28;;
15114;SDS011;7658;51.456;7.622;2022-10-17T10:24:25;7.22;;;4.00;;
15114;SDS011;7658;51.456;7.622;2022-10-17T10:26:52;11.07;;;4.03;;
15114;SDS011;7658;51.456;7.622;2022-10-17T10:32:37;4.53;;;3.88;;
15114;SDS011;7658;51.456;7.622;2022-10-17T10:34:52;9.25;;;4.10;;
15114;SDS011;7658;51.456;7.622;2022-10-17T10:39:50;7.38;;;3.97;;
15114;SDS011;7658;51.456;7.622;2022-10-17T10:42:23;13.18;;;4.30;;
15114;SDS011;7658;51.456;7.622;2022-10-17T10:45:00;7.15;;;3.97;;
15114;SDS011;7658;51.456;7.622;2022-10-17T10:47:29;10.40;;;3.88;;
15114;SDS011;7658;51.456;7.622;2022-10-17T10:50:07;6.18;;;3.70;;
15114;SDS011;7658;51.456;7.622;2022-10-17T10:52:44;10.52;;;4.00;;
15114;SDS011;7658;51.456;7.622;2022-10-17T10:57:49;6.88;;;4.35;;
15114;SDS011;7658;51.456;7.622;2022-10-17T11:00:20;9.88;;;3.92;;
15114;SDS011;7658;51.456;7.622;2022-10-17T11:02:56;6.22;;;3.70;;
15114;SDS011;7658;51.456;7.622;2022-10-17T11:08:28;5.72;;;4.10;;
15114;SDS011;7658;51.456;7.622;2022-10-17T11:16:50;5.35;;;4.32;;
15114;SDS011;7658;51.456;7.622;2022-10-17T11:24:47;7.45;;;4.10;;
15114;SDS011;7658;51.456;7.622;2022-10-17T11:27:23;7.38;;;4.70;;
15114;SDS011;7658;51.456;7.622;2022-10-17T11:29:50;7.28;;;4.13;;
15114;SDS011;7658;51.456;7.622;2022-10-17T11:32:21;5.88;;;4.03;;
15114;SDS011;7658;51.456;7.622;2022-10-17T11:35:26;10.38;;;4.05;;
15114;SDS011;7658;51.456;7.622;2022-10-17T11:38:06;9.40;;;4.40;;
15114;SDS011;7658;51.456;7.622;2022-10-17T11:40:41;4.30;;;3.75;;
15114;SDS011;7658;51.456;7.622;2022-10-17T11:43:18;6.18;;;4.13;;
15114;SDS011;7658;51.456;7.622;2022-10-17T11:45:46;6.20;;;4.05;;
15114;SDS011;7658;51.456;7.622;2022-10-17T11:48:17;8.32;;;4.60;;
15114;SDS011;7658;51.456;7.622;2022-10-17T11:50:56;8.82;;;4.43;;
15114;SDS011;7658;51.456;7.622;2022-10-17T11:53:55;9.02;;;4.13;;
15114;SDS011;7658;51.456;7.622;2022-10-17T11:56:39;9.07;;;4.88;;
15114;SDS011;7658;51.456;7.622;2022-10-17T12:01:38;5.40;;;4.13;;
15114;SDS011;7658;51.456;7.622;2022-10-17T12:07:08;11.52;;;4.60;;
15114;SDS011;7658;51.456;7.622;2022-10-17T12:09:58;7.35;;;4.25;;
15114;SDS011;7658;51.456;7.622;2022-10-17T12:12:45;5.55;;;4.10;;
15114;SDS011;7658;51.456;7.622;2022-10-17T12:18:00;9.52;;;4.22;;
15114;SDS011;7658;51.456;7.622;2022-10-17T12:23:19;9.82;;;4.40;;
15114;SDS011;7658;51.456;7.622;2022-10-17T12:25:53;9.60;;;4.25;;
15114;SDS011;7658;51.456;7.622;2022-10-17T12:31:06;6.38;;;4.43;;
15114;SDS011;7658;51.456;7.622;2022-10-17T12:33:52;9.50;;;4.38;;
15114;SDS011;7658;51.456;7.622;2022-10-17T12:42:19;6.35;;;4.03;;
15114;SDS011;7658;51.456;7.622;2022-10-17T13:00:11;8.13;;;4.10;;
15114;SDS011;7658;51.456;7.622;2022-10-17T13:02:41;7.65;;;4.13;;
15114;SDS011;7658;51.456;7.622;2022-10-17T13:05:12;7.68;;;3.67;;
15114;SDS011;7658;51.456;7.622;2022-10-17T13:07:41;8.85;;;4.07;;
15114;SDS011;7658;51.456;7.622;2022-10-17T13:10:18;7.88;;;4.45;;
15114;SDS011;7658;51.456;7.622;2022-10-17T13:12:45;11.88;;;4.38;;
15114;SDS011;7658;51.456;7.622;2022-10-17T13:15:14;7.40;;;4.13;;
15114;SDS011;7658;51.456;7.622;2022-10-17T13:17:43;10.80;;;4.68;;
15114;SDS011;7658;51.456;7.622;2022-10-17T13:20:17;9.15;;;4.47;;
15114;SDS011;7658;51.456;7.622;2022-10-17T13:22:49;7.20;;;3.65;;
15114;SDS011;7658;51.456;7.622;2022-10-17T13:25:17;6.43;;;4.20;;
15114;SDS011;7658;51.456;7.622;2022-10-17T13:27:44;7.80;;;3.83;;
15114;SDS011;7658;51.456;7.622;2022-10-17T13:32:49;7.57;;;4.50;;
15114;SDS011;7658;51.456;7.622;2022-10-17T13:35:20;12.45;;;3.97;;
15114;SDS011;7658;51.456;7.622;2022-10-17T13:37:49;6.93;;;4.40;;
15114;SDS011;7658;51.456;7.622;2022-10-17T13:40:17;5.20;;;4.15;;
15114;SDS011;7658;51.456;7.622;2022-10-17T13:42:45;10.93;;;4.55;;
15114;SDS011;7658;51.456;7.622;2022-10-17T13:48:14;7.07;;;4.43;;
15114;SDS011;7658;51.456;7.622;2022-10-17T13:50:45;10.00;;;4.00;;
15114;SDS011;7658;51.456;7.622;2022-10-17T13:58:46;10.57;;;3.97;;
15114;SDS011;7658;51.456;7.622;2022-10-17T14:01:14;12.43;;;4.20;;
15114;SDS011;7658;51.456;7.622;2022-10-17T14:03:41;8.52;;;4.07;;
15114;SDS011;7658;51.456;7.622;2022-10-17T14:06:15;6.35;;;3.97;;
15114;SDS011;7658;51.456;7.622;2022-10-17T14:08:47;6.18;;;4.13;;
15114;SDS011;7658;51.456;7.622;2022-10-17T14:13:56;6.75;;;3.88;;
15114;SDS011;7658;51.456;7.622;2022-10-17T14:16:24;6.07;;;4.22;;
15114;SDS011;7658;51.456;7.622;2022-10-17T14:18:52;6.38;;;4.18;;
15114;SDS011;7658;51.456;7.622;2022-10-17T14:21:22;9.27;;;4.15;;
15114;SDS011;7658;51.456;7.622;2022-10-17T14:23:50;8.63;;;4.20;;
15114;SDS011;7658;51.456;7.622;2022-10-17T14:26:44;9.27;;;4.03;;
15114;SDS011;7658;51.456;7.622;2022-10-17T14:31:47;8.00;;;4.00;;
15114;SDS011;7658;51.456;7.622;2022-10-17T14:34:21;5.13;;;4.10;;
15114;SDS011;7658;51.456;7.622;2022-10-17T14:36:50;8.75;;;4.35;;
15114;SDS011;7658;51.456;7.622;2022-10-17T14:39:18;7.20;;;4.25;;
15114;SDS011;7658;51.456;7.622;2022-10-17T14:41:47;7.55;;;4.10;;
15114;SDS011;7658;51.456;7.622;2022-10-17T14:44:18;12.40;;;5.85;;
15114;SDS011;7658;51.456;7.622;2022-10-17T14:46:57;6.25;;;3.70;;
15114;SDS011;7658;51.456;7.622;2022-10-17T14:49:36;5.50;;;3.88;;
15114;SDS011;7658;51.456;7.622;2022-10-17T14:54:45;6.07;;;3.78;;
15114;SDS011;7658;51.456;7.622;2022-10-17T14:57:22;11.80;;;4.47;;
15114;SDS011;7658;51.456;7.622;2022-10-17T14:59:50;13.02;;;4.78;;
15114;SDS011;7658;51.456;7.622;2022-10-17T15:02:17;8.48;;;4.80;;
15114;SDS011;7658;51.456;7.622;2022-10-17T15:04:42;11.57;;;4.55;;
15114;SDS011;7658;51.456;7.622;2022-10-17T15:07:12;9.20;;;4.07;;
15114;SDS011;7658;51.456;7.622;2022-10-17T15:09:39;8.30;;;4.45;;
15114;SDS011;7658;51.456;7.622;2022-10-17T15:12:06;10.23;;;4.65;;
15114;SDS011;7658;51.456;7.622;2022-10-17T15:14:38;14.68;;;5.15;;
15114;SDS011;7658;51.456;7.622;2022-10-17T15:17:08;5.15;;;4.22;;
15114;SDS011;7658;51.456;7.622;2022-10-17T15:19:39;7.32;;;4.43;;
15114;SDS011;7658;51.456;7.622;2022-10-17T15:22:05;8.27;;;4.35;;
15114;SDS011;7658;51.456;7.622;2022-10-17T15:24:30;9.32;;;4.55;;
15114;SDS011;7658;51.456;7.622;2022-10-17T15:26:56;6.97;;;4.72;;
15114;SDS011;7658;51.456;7.622;2022-10-17T15:29:22;7.65;;;4.28;;
15114;SDS011;7658;51.456;7.622;2022-10-17T15:31:48;6.85;;;4.25;;
15114;SDS011;7658;51.456;7.622;2022-10-17T15:34:13;10.68;;;4.22;;
15114;SDS011;7658;51.456;7.622;2022-10-17T15:36:39;6.40;;;4.40;;
15114;SDS011;7658;51.456;7.622;2022-10-17T15:39:06;8.50;;;4.60;;
15114;SDS011;7658;51.456;7.622;2022-10-17T15:41:34;8.93;;;4.53;;
15114;SDS011;7658;51.456;7.622;2022-10-17T15:44:00;13.65;;;4.70;;
15114;SDS011;7658;51.456;7.622;2022-10-17T15:46:27;9.13;;;4.70;;
15114;SDS011;7658;51.456;7.622;2022-10-17T15:48:56;11.00;;;4.65;;
15114;SDS011;7658;51.456;7.622;2022-10-17T15:51:25;10.80;;;4.28;;
15114;SDS011;7658;51.456;7.622;2022-10-17T15:53:51;6.50;;;4.13;;
15114;SDS011;7658;51.456;7.622;2022-10-17T15:56:24;10.57;;;4.78;;
15114;SDS011;7658;51.456;7.622;2022-10-17T15:58:56;9.20;;;4.63;;
15114;SDS011;7658;51.456;7.622;2022-10-17T16:01:23;8.60;;;4.10;;
15114;SDS011;7658;51.456;7.622;2022-10-17T16:03:51;10.30;;;4.70;;
15114;SDS011;7658;51.456;7.622;2022-10-17T16:06:17;9.23;;;5.00;;
15114;SDS011;7658;51.456;7.622;2022-10-17T16:08:44;11.57;;;4.10;;
15114;SDS011;7658;51.456;7.622;2022-10-17T16:11:23;10.20;;;5.20;;
15114;SDS011;7658;51.456;7.622;2022-10-17T16:13:57;8.45;;;4.32;;
15114;SDS011;7658;51.456;7.622;2022-10-17T16:16:26;8.30;;;4.30;;
15114;SDS011;7658;51.456;7.622;2022-10-17T16:18:52;8.13;;;4.72;;
15114;SDS011;7658;51.456;7.622;2022-10-17T16:21:18;8.90;;;5.07;;
15114;SDS011;7658;51.456;7.622;2022-10-17T16:23:47;9.13;;;5.35;;
15114;SDS011;7658;51.456;7.622;2022-10-17T16:26:12;7.72;;;5.32;;
15114;SDS011;7658;51.456;7.622;2022-10-17T16:28:40;10.65;;;5.30;;
15114;SDS011;7658;51.456;7.622;2022-10-17T16:31:40;9.52;;;5.30;;
15114;SDS011;7658;51.456;7.622;2022-10-17T16:34:00;7.00;;;4.72;;
15114;SDS011;7658;51.456;7.622;2022-10-17T16:36:27;11.90;;;5.68;;
15114;SDS011;7658;51.456;7.622;2022-10-17T16:38:53;10.10;;;4.95;;
15114;SDS011;7658;51.456;7.622;2022-10-17T16:43:55;14.40;;;5.68;;
15114;SDS011;7658;51.456;7.622;2022-10-17T16:46:23;8.82;;;5.00;;
15114;SDS011;7658;51.456;7.622;2022-10-17T16:48:50;12.77;;;5.70;;
15114;SDS011;7658;51.456;7.622;2022-10-17T16:51:16;10.40;;;6.38;;
15114;SDS011;7658;51.456;7.622;2022-10-17T16:53:43;8.40;;;5.65;;
15114;SDS011;7658;51.456;7.622;2022-10-17T16:56:11;10.38;;;5.55;;
15114;SDS011;7658;51.456;7.622;2022-10-17T16:58:39;11.20;;;6.18;;
15114;SDS011;7658;51.456;7.622;2022-10-17T17:01:07;10.52;;;6.70;;
15114;SDS011;7658;51.456;7.622;2022-10-17T17:03:38;10.93;;;6.68;;
15114;SDS011;7658;51.456;7.622;2022-10-17T17:06:05;10.27;;;6.72;;
15114;SDS011;7658;51.456;7.622;2022-10-17T17:08:32;15.45;;;7.15;;
15114;SDS011;7658;51.456;7.622;2022-10-17T17:10:58;17.83;;;8.27;;
15114;SDS011;7658;51.456;7.622;2022-10-17T17:13:24;14.38;;;8.10;;
15114;SDS011;7658;51.456;7.622;2022-10-17T17:16:00;15.10;;;8.73;;
15114;SDS011;7658;51.456;7.622;2022-10-17T17:18:27;15.23;;;9.10;;
15114;SDS011;7658;51.456;7.622;2022-10-17T17:20:56;16.85;;;8.73;;
15114;SDS011;7658;51.456;7.622;2022-10-17T17:23:26;14.35;;;7.95;;
15114;SDS011;7658;51.456;7.622;2022-10-17T17:25:59;11.60;;;7.72;;
15114;SDS011;7658;51.456;7.622;2022-10-17T17:28:29;10.60;;;7.18;;
15114;SDS011;7658;51.456;7.622;2022-10-17T17:30:56;11.15;;;9.05;;
15114;SDS011;7658;51.456;7.622;2022-10-17T17:33:22;13.10;;;8.40;;
15114;SDS011;7658;51.456;7.622;2022-10-17T17:35:55;13.52;;;8.32;;